sensor_id;sensor_type;location;lat;lon;timestamp;pressure;altitude;pressure_sealevel;temperature;humidity
12101;BME280;6113;42.678;23.334;2022-07-22T00:01:40;94835.63;;;24.93;55.54
12101;BME280;6113;42.678;23.334;2022-07-22T00:04:06;94840.22;;;24.90;55.86
12101;BME280;6113;42.678;23.334;2022-07-22T00:06:33;94828.84;;;24.73;55.95
12101;BME280;6113;42.678;23.334;2022-07-22T00:09:00;94838.34;;;24.85;55.89
12101;BME280;6113;42.678;23.334;2022-07-22T00:11:27;94841.50;;;24.82;55.95
12101;BME280;6113;42.678;23.334;2022-07-22T00:13:54;94848.16;;;24.79;56.00
12101;BME280;6113;42.678;23.334;2022-07-22T00:16:21;94843.28;;;24.72;55.93
12101;BME280;6113;42.678;23.334;2022-07-22T00:18:49;94847.72;;;24.67;56.13
12101;BME280;6113;42.678;23.334;2022-07-22T00:21:16;94848.06;;;24.64;55.78
12101;BME280;6113;42.678;23.334;2022-07-22T00:23:43;94846.00;;;24.57;55.85
12101;BME280;6113;42.678;23.334;2022-07-22T00:26:09;94846.00;;;24.57;55.64
12101;BME280;6113;42.678;23.334;2022-07-22T00:28:36;94819.28;;;24.34;55.79
12101;BME280;6113;42.678;23.334;2022-07-22T00:31:03;94854.31;;;24.50;56.35
12101;BME280;6113;42.678;23.334;2022-07-22T00:33:30;94857.63;;;24.48;55.97
12101;BME280;6113;42.678;23.334;2022-07-22T00:35:58;94844.38;;;24.41;55.71
12101;BME280;6113;42.678;23.334;2022-07-22T00:38:25;94856.19;;;24.55;55.63
12101;BME280;6113;42.678;23.334;2022-07-22T00:40:52;94838.13;;;24.48;55.22
12101;BME280;6113;42.678;23.334;2022-07-22T00:43:19;94861.63;;;24.60;55.18
12101;BME280;6113;42.678;23.334;2022-07-22T00:45:46;94850.06;;;24.56;55.34
12101;BME280;6113;42.678;23.334;2022-07-22T00:48:13;94832.72;;;24.43;55.03
12101;BME280;6113;42.678;23.334;2022-07-22T00:50:40;94851.34;;;24.55;55.00
12101;BME280;6113;42.678;23.334;2022-07-22T00:53:08;94854.75;;;24.61;54.99
12101;BME280;6113;42.678;23.334;2022-07-22T00:55:36;94857.72;;;24.63;54.95
12101;BME280;6113;42.678;23.334;2022-07-22T00:58:03;94861.78;;;24.62;54.73
12101;BME280;6113;42.678;23.334;2022-07-22T01:00:30;94854.56;;;24.59;54.57
12101;BME280;6113;42.678;23.334;2022-07-22T01:02:57;94834.81;;;24.50;54.55
12101;BME280;6113;42.678;23.334;2022-07-22T01:05:24;94855.84;;;24.58;54.77
12101;BME280;6113;42.678;23.334;2022-07-22T01:07:51;94853.78;;;24.59;54.34
12101;BME280;6113;42.678;23.334;2022-07-22T01:10:19;94818.19;;;24.37;54.27
12101;BME280;6113;42.678;23.334;2022-07-22T01:12:46;94849.13;;;24.54;54.88
12101;BME280;6113;42.678;23.334;2022-07-22T01:15:13;94860.25;;;24.54;54.95
12101;BME280;6113;42.678;23.334;2022-07-22T01:17:40;94857.84;;;24.50;54.79
12101;BME280;6113;42.678;23.334;2022-07-22T01:20:09;94858.03;;;24.52;54.46
12101;BME280;6113;42.678;23.334;2022-07-22T01:22:36;94857.84;;;24.50;54.04
12101;BME280;6113;42.678;23.334;2022-07-22T01:25:03;94856.34;;;24.49;53.80
12101;BME280;6113;42.678;23.334;2022-07-22T01:27:30;94860.63;;;24.50;53.81
12101;BME280;6113;42.678;23.334;2022-07-22T01:29:57;94855.03;;;24.50;53.58
12101;BME280;6113;42.678;23.334;2022-07-22T01:32:24;94848.19;;;24.51;54.08
12101;BME280;6113;42.678;23.334;2022-07-22T01:34:51;94853.56;;;24.49;53.78
12101;BME280;6113;42.678;23.334;2022-07-22T01:37:19;94854.31;;;24.50;53.96
12101;BME280;6113;42.678;23.334;2022-07-22T01:39:46;94852.25;;;24.50;53.50
12101;BME280;6113;42.678;23.334;2022-07-22T01:42:14;94847.59;;;24.45;53.47
12101;BME280;6113;42.678;23.334;2022-07-22T01:44:40;94849.41;;;24.43;53.52
12101;BME280;6113;42.678;23.334;2022-07-22T01:47:08;94848.66;;;24.42;53.81
12101;BME280;6113;42.678;23.334;2022-07-22T01:49:35;94859.06;;;24.42;53.47
12101;BME280;6113;42.678;23.334;2022-07-22T01:52:03;94838.91;;;24.28;53.57
12101;BME280;6113;42.678;23.334;2022-07-22T01:54:31;94858.28;;;24.41;53.58
12101;BME280;6113;42.678;23.334;2022-07-22T01:56:58;94848.66;;;24.42;53.24
12101;BME280;6113;42.678;23.334;2022-07-22T01:59:24;94852.00;;;24.41;53.52
12101;BME280;6113;42.678;23.334;2022-07-22T02:01:51;94854.97;;;24.43;53.28
12101;BME280;6113;42.678;23.334;2022-07-22T02:04:18;94859.06;;;24.42;53.20
12101;BME280;6113;42.678;23.334;2022-07-22T02:06:45;94855.13;;;24.37;53.74
12101;BME280;6113;42.678;23.334;2022-07-22T02:09:12;94854.91;;;24.35;54.14
12101;BME280;6113;42.678;23.334;2022-07-22T02:11:40;94866.53;;;24.26;55.33
12101;BME280;6113;42.678;23.334;2022-07-22T02:14:07;94871.09;;;24.16;56.18
12101;BME280;6113;42.678;23.334;2022-07-22T02:16:34;94874.56;;;24.09;56.36
12101;BME280;6113;42.678;23.334;2022-07-22T02:19:01;94872.47;;;24.02;56.90
12101;BME280;6113;42.678;23.334;2022-07-22T02:21:28;94881.28;;;23.93;57.18
12101;BME280;6113;42.678;23.334;2022-07-22T02:23:55;94876.53;;;23.81;57.95
12101;BME280;6113;42.678;23.334;2022-07-22T02:26:21;94881.78;;;23.72;58.17
12101;BME280;6113;42.678;23.334;2022-07-22T02:28:50;94886.31;;;23.62;58.31
12101;BME280;6113;42.678;23.334;2022-07-22T02:31:16;94878.66;;;23.55;58.47
12101;BME280;6113;42.678;23.334;2022-07-22T02:33:45;94880.38;;;23.45;58.86
12101;BME280;6113;42.678;23.334;2022-07-22T02:36:12;94877.31;;;23.48;58.98
12101;BME280;6113;42.678;23.334;2022-07-22T02:38:39;94876.13;;;23.44;58.85
12101;BME280;6113;42.678;23.334;2022-07-22T02:41:06;94875.91;;;23.42;58.85
12101;BME280;6113;42.678;23.334;2022-07-22T02:43:33;94879.97;;;23.41;58.97
12101;BME280;6113;42.678;23.334;2022-07-22T02:46:01;94880.66;;;23.34;59.38
12101;BME280;6113;42.678;23.334;2022-07-22T02:48:28;94875.94;;;23.29;59.91
12101;BME280;6113;42.678;23.334;2022-07-22T02:50:55;94874.25;;;23.26;60.00
12101;BME280;6113;42.678;23.334;2022-07-22T02:53:22;94873.44;;;23.18;60.31
12101;BME280;6113;42.678;23.334;2022-07-22T02:55:49;94874.09;;;23.11;60.73
12101;BME280;6113;42.678;23.334;2022-07-22T02:58:15;94874.94;;;23.06;60.96
12101;BME280;6113;42.678;23.334;2022-07-22T03:00:42;94876.84;;;22.98;61.49
12101;BME280;6113;42.678;23.334;2022-07-22T03:03:11;94880.47;;;22.93;62.14
12101;BME280;6113;42.678;23.334;2022-07-22T03:05:37;94880.81;;;22.90;62.26
12101;BME280;6113;42.678;23.334;2022-07-22T03:08:04;94848.91;;;22.70;62.13
12101;BME280;6113;42.678;23.334;2022-07-22T03:10:31;94876.63;;;22.83;62.13
12101;BME280;6113;42.678;23.334;2022-07-22T03:12:58;94875.91;;;22.83;62.20
12101;BME280;6113;42.678;23.334;2022-07-22T03:15:25;94870.47;;;22.77;62.51
12101;BME280;6113;42.678;23.334;2022-07-22T03:17:51;94876.78;;;22.78;62.92
12101;BME280;6113;42.678;23.334;2022-07-22T03:20:20;94883.38;;;22.75;63.07
12101;BME280;6113;42.678;23.334;2022-07-22T03:22:46;94880.19;;;22.71;63.28
12101;BME280;6113;42.678;23.334;2022-07-22T03:25:13;94855.53;;;22.54;63.09
12101;BME280;6113;42.678;23.334;2022-07-22T03:27:40;94876.75;;;22.65;63.22
12101;BME280;6113;42.678;23.334;2022-07-22T03:30:07;94882.88;;;22.63;63.41
12101;BME280;6113;42.678;23.334;2022-07-22T03:32:34;94895.03;;;22.60;63.81
12101;BME280;6113;42.678;23.334;2022-07-22T03:35:01;94863.97;;;22.49;64.05
12101;BME280;6113;42.678;23.334;2022-07-22T03:37:29;94889.69;;;22.62;64.07
12101;BME280;6113;42.678;23.334;2022-07-22T03:39:56;94885.75;;;22.58;64.24
12101;BME280;6113;42.678;23.334;2022-07-22T03:42:23;94889.47;;;22.60;64.37
12101;BME280;6113;42.678;23.334;2022-07-22T03:44:50;94879.00;;;22.53;64.46
12101;BME280;6113;42.678;23.334;2022-07-22T03:47:21;94895.56;;;22.59;64.59
12101;BME280;6113;42.678;23.334;2022-07-22T03:49:48;94892.25;;;22.60;64.72
12101;BME280;6113;42.678;23.334;2022-07-22T03:52:15;94899.28;;;22.61;64.82
12101;BME280;6113;42.678;23.334;2022-07-22T03:54:43;94890.34;;;22.55;65.42
12101;BME280;6113;42.678;23.334;2022-07-22T03:57:10;94897.56;;;22.58;65.70
12101;BME280;6113;42.678;23.334;2022-07-22T03:59:37;94900.56;;;22.60;65.65
12101;BME280;6113;42.678;23.334;2022-07-22T04:02:04;94889.38;;;22.53;65.88
12101;BME280;6113;42.678;23.334;2022-07-22T04:04:30;94881.78;;;22.53;65.83
12101;BME280;6113;42.678;23.334;2022-07-22T04:06:57;94902.94;;;22.69;65.69
12101;BME280;6113;42.678;23.334;2022-07-22T04:09:24;94911.47;;;22.71;65.96
12101;BME280;6113;42.678;23.334;2022-07-22T04:11:52;94895.66;;;22.66;65.58
12101;BME280;6113;42.678;23.334;2022-07-22T04:14:19;94907.19;;;22.83;65.62
12101;BME280;6113;42.678;23.334;2022-07-22T04:16:46;94911.34;;;22.90;65.59
12101;BME280;6113;42.678;23.334;2022-07-22T04:19:13;94908.47;;;22.95;65.39
12101;BME280;6113;42.678;23.334;2022-07-22T04:21:41;94900.56;;;22.86;65.68
12101;BME280;6113;42.678;23.334;2022-07-22T04:24:08;94900.97;;;22.90;65.77
12101;BME280;6113;42.678;23.334;2022-07-22T04:26:35;94900.78;;;22.88;65.81
12101;BME280;6113;42.678;23.334;2022-07-22T04:29:03;94912.22;;;23.10;65.66
12101;BME280;6113;42.678;23.334;2022-07-22T04:31:30;94910.41;;;23.13;65.66
12101;BME280;6113;42.678;23.334;2022-07-22T04:33:57;94917.88;;;23.18;65.47
12101;BME280;6113;42.678;23.334;2022-07-22T04:36:25;94919.78;;;23.23;65.32
12101;BME280;6113;42.678;23.334;2022-07-22T04:38:51;94898.88;;;23.09;65.49
12101;BME280;6113;42.678;23.334;2022-07-22T04:41:18;94924.44;;;23.41;65.09
12101;BME280;6113;42.678;23.334;2022-07-22T04:43:45;94930.63;;;23.47;64.87
12101;BME280;6113;42.678;23.334;2022-07-22T04:46:13;94911.84;;;23.40;64.77
12101;BME280;6113;42.678;23.334;2022-07-22T04:48:40;94913.44;;;23.48;64.92
12101;BME280;6113;42.678;23.334;2022-07-22T04:51:07;94931.63;;;23.70;63.68
12101;BME280;6113;42.678;23.334;2022-07-22T04:53:34;94931.19;;;23.79;62.70
12101;BME280;6113;42.678;23.334;2022-07-22T04:56:01;94943.56;;;23.90;61.54
12101;BME280;6113;42.678;23.334;2022-07-22T04:58:28;94939.56;;;23.99;60.88
12101;BME280;6113;42.678;23.334;2022-07-22T05:00:54;94940.81;;;24.11;60.39
12101;BME280;6113;42.678;23.334;2022-07-22T05:03:23;94935.91;;;24.24;59.03
12101;BME280;6113;42.678;23.334;2022-07-22T05:05:51;94944.00;;;24.35;57.83
12101;BME280;6113;42.678;23.334;2022-07-22T05:08:18;94843.44;;;23.90;57.88
12101;BME280;6113;42.678;23.334;2022-07-22T05:10:44;94925.03;;;24.54;57.32
12101;BME280;6113;42.678;23.334;2022-07-22T05:13:12;94934.69;;;24.73;56.45
12101;BME280;6113;42.678;23.334;2022-07-22T05:15:39;94936.06;;;24.87;55.51
12101;BME280;6113;42.678;23.334;2022-07-22T05:18:06;94935.94;;;25.00;55.55
12101;BME280;6113;42.678;23.334;2022-07-22T05:20:34;94930.84;;;25.12;55.19
12101;BME280;6113;42.678;23.334;2022-07-22T05:23:02;94934.59;;;25.22;55.15
12101;BME280;6113;42.678;23.334;2022-07-22T05:25:29;94932.81;;;25.32;55.19
12101;BME280;6113;42.678;23.334;2022-07-22T05:27:55;94936.00;;;25.43;55.08
12101;BME280;6113;42.678;23.334;2022-07-22T05:30:23;94950.16;;;25.52;54.83
12101;BME280;6113;42.678;23.334;2022-07-22T05:32:50;94944.81;;;25.62;54.54
12101;BME280;6113;42.678;23.334;2022-07-22T05:35:17;94949.31;;;25.72;54.03
12101;BME280;6113;42.678;23.334;2022-07-22T05:37:46;94946.00;;;25.81;53.67
12101;BME280;6113;42.678;23.334;2022-07-22T05:40:13;94922.19;;;25.80;53.60
12101;BME280;6113;42.678;23.334;2022-07-22T05:42:40;94934.00;;;26.01;53.24
12101;BME280;6113;42.678;23.334;2022-07-22T05:45:07;94932.31;;;26.13;52.86
12101;BME280;6113;42.678;23.334;2022-07-22T05:47:35;94935.31;;;26.15;53.21
12101;BME280;6113;42.678;23.334;2022-07-22T05:50:02;94923.41;;;26.22;52.72
12101;BME280;6113;42.678;23.334;2022-07-22T05:52:29;94940.94;;;26.45;52.66
12101;BME280;6113;42.678;23.334;2022-07-22T05:54:59;94924.38;;;26.47;52.12
12101;BME280;6113;42.678;23.334;2022-07-22T05:57:26;94951.34;;;26.67;51.66
12101;BME280;6113;42.678;23.334;2022-07-22T05:59:53;94938.50;;;26.79;51.57
12101;BME280;6113;42.678;23.334;2022-07-22T06:02:20;94939.06;;;26.92;51.42
12101;BME280;6113;42.678;23.334;2022-07-22T06:04:46;94932.34;;;27.03;50.88
12101;BME280;6113;42.678;23.334;2022-07-22T06:07:13;94916.50;;;27.05;51.07
12101;BME280;6113;42.678;23.334;2022-07-22T06:09:40;94920.94;;;27.15;50.87
12101;BME280;6113;42.678;23.334;2022-07-22T06:12:08;94931.16;;;27.35;50.53
12101;BME280;6113;42.678;23.334;2022-07-22T06:14:35;94851.34;;;26.73;49.79
12101;BME280;6113;42.678;23.334;2022-07-22T06:17:03;94935.22;;;27.42;50.19
12101;BME280;6113;42.678;23.334;2022-07-22T06:19:29;94940.94;;;27.59;49.85
12101;BME280;6113;42.678;23.334;2022-07-22T06:21:57;94934.81;;;27.53;48.23
12101;BME280;6113;42.678;23.334;2022-07-22T06:24:24;94946.38;;;27.64;49.15
12101;BME280;6113;42.678;23.334;2022-07-22T06:26:51;94943.69;;;27.81;49.40
12101;BME280;6113;42.678;23.334;2022-07-22T06:29:20;94945.09;;;27.97;49.80
12101;BME280;6113;42.678;23.334;2022-07-22T06:31:47;94939.41;;;28.12;49.75
12101;BME280;6113;42.678;23.334;2022-07-22T06:34:14;94942.13;;;28.27;49.35
12101;BME280;6113;42.678;23.334;2022-07-22T06:36:41;94934.75;;;28.39;48.64
12101;BME280;6113;42.678;23.334;2022-07-22T06:39:07;94939.16;;;28.49;47.97
12101;BME280;6113;42.678;23.334;2022-07-22T06:41:34;94942.41;;;28.63;47.27
12101;BME280;6113;42.678;23.334;2022-07-22T06:44:01;94944.16;;;28.75;46.75
12101;BME280;6113;42.678;23.334;2022-07-22T06:46:29;94935.66;;;28.90;46.54
12101;BME280;6113;42.678;23.334;2022-07-22T06:48:56;94939.78;;;28.89;44.78
12101;BME280;6113;42.678;23.334;2022-07-22T06:51:23;94902.34;;;28.70;45.19
12101;BME280;6113;42.678;23.334;2022-07-22T06:53:50;94941.28;;;29.07;45.22
12101;BME280;6113;42.678;23.334;2022-07-22T06:56:17;94935.53;;;29.22;45.00
12101;BME280;6113;42.678;23.334;2022-07-22T06:58:44;94943.06;;;29.36;43.79
12101;BME280;6113;42.678;23.334;2022-07-22T07:01:10;94933.75;;;29.51;44.25
12101;BME280;6113;42.678;23.334;2022-07-22T07:03:39;94926.97;;;29.54;42.66
12101;BME280;6113;42.678;23.334;2022-07-22T07:06:07;94927.78;;;29.63;41.62
12101;BME280;6113;42.678;23.334;2022-07-22T07:08:36;94923.53;;;29.72;41.07
12101;BME280;6113;42.678;23.334;2022-07-22T07:11:03;94934.00;;;29.88;40.84
12101;BME280;6113;42.678;23.334;2022-07-22T07:13:30;94927.16;;;29.99;40.67
12101;BME280;6113;42.678;23.334;2022-07-22T07:15:57;94904.34;;;29.95;40.92
12101;BME280;6113;42.678;23.334;2022-07-22T07:18:24;94931.50;;;30.36;39.11
12101;BME280;6113;42.678;23.334;2022-07-22T07:20:52;94922.56;;;30.20;39.46
12101;BME280;6113;42.678;23.334;2022-07-22T07:23:20;94940.94;;;30.31;39.83
12101;BME280;6113;42.678;23.334;2022-07-22T07:25:47;94938.09;;;30.47;40.14
12101;BME280;6113;42.678;23.334;2022-07-22T07:28:13;94939.19;;;30.61;38.05
12101;BME280;6113;42.678;23.334;2022-07-22T07:30:41;94942.41;;;30.58;38.45
12101;BME280;6113;42.678;23.334;2022-07-22T07:33:08;94936.81;;;30.67;39.11
12101;BME280;6113;42.678;23.334;2022-07-22T07:35:35;94924.97;;;30.69;38.73
12101;BME280;6113;42.678;23.334;2022-07-22T07:38:03;94944.00;;;30.87;38.61
12101;BME280;6113;42.678;23.334;2022-07-22T07:40:30;94934.25;;;30.98;38.29
12101;BME280;6113;42.678;23.334;2022-07-22T07:42:57;94932.81;;;31.06;38.12
12101;BME280;6113;42.678;23.334;2022-07-22T07:45:24;94932.41;;;31.19;38.14
12101;BME280;6113;42.678;23.334;2022-07-22T07:47:51;94921.44;;;31.23;37.70
12101;BME280;6113;42.678;23.334;2022-07-22T07:50:18;94931.81;;;31.30;37.24
12101;BME280;6113;42.678;23.334;2022-07-22T07:52:45;94936.13;;;31.50;36.61
12101;BME280;6113;42.678;23.334;2022-07-22T07:55:14;94932.44;;;31.57;36.48
12101;BME280;6113;42.678;23.334;2022-07-22T07:57:42;94940.41;;;31.51;35.29
12101;BME280;6113;42.678;23.334;2022-07-22T08:00:10;94934.38;;;31.54;35.65
12101;BME280;6113;42.678;23.334;2022-07-22T08:02:37;94923.50;;;31.51;36.00
12101;BME280;6113;42.678;23.334;2022-07-22T08:05:05;94940.44;;;31.79;36.25
12101;BME280;6113;42.678;23.334;2022-07-22T08:07:32;94922.81;;;31.69;36.12
12101;BME280;6113;42.678;23.334;2022-07-22T08:09:59;94935.72;;;31.82;34.99
12101;BME280;6113;42.678;23.334;2022-07-22T08:12:27;94938.06;;;31.95;35.02
12101;BME280;6113;42.678;23.334;2022-07-22T08:14:54;94935.81;;;32.12;35.28
12101;BME280;6113;42.678;23.334;2022-07-22T08:17:21;94932.81;;;32.29;34.70
12101;BME280;6113;42.678;23.334;2022-07-22T08:19:48;94935.13;;;32.42;34.22
12101;BME280;6113;42.678;23.334;2022-07-22T08:22:15;94938.78;;;32.63;33.23
12101;BME280;6113;42.678;23.334;2022-07-22T08:24:42;94934.72;;;32.76;33.69
12101;BME280;6113;42.678;23.334;2022-07-22T08:27:09;94927.81;;;32.67;32.78
12101;BME280;6113;42.678;23.334;2022-07-22T08:29:37;94938.34;;;32.67;32.31
12101;BME280;6113;42.678;23.334;2022-07-22T08:32:05;94937.09;;;32.79;32.14
12101;BME280;6113;42.678;23.334;2022-07-22T08:34:32;94944.00;;;32.97;31.09
12101;BME280;6113;42.678;23.334;2022-07-22T08:36:58;94935.00;;;33.10;31.33
12101;BME280;6113;42.678;23.334;2022-07-22T08:39:25;94919.41;;;33.09;30.49
12101;BME280;6113;42.678;23.334;2022-07-22T08:41:53;94937.13;;;33.30;30.38
12101;BME280;6113;42.678;23.334;2022-07-22T08:44:20;94927.38;;;33.43;30.28
12101;BME280;6113;42.678;23.334;2022-07-22T08:46:49;94942.34;;;33.45;30.28
12101;BME280;6113;42.678;23.334;2022-07-22T08:49:16;94928.19;;;33.13;30.60
12101;BME280;6113;42.678;23.334;2022-07-22T08:51:43;94942.16;;;33.32;30.60
12101;BME280;6113;42.678;23.334;2022-07-22T08:54:10;94934.69;;;33.36;30.67
12101;BME280;6113;42.678;23.334;2022-07-22T08:56:37;94942.16;;;33.53;30.97
12101;BME280;6113;42.678;23.334;2022-07-22T08:59:04;94943.50;;;33.72;31.17
12101;BME280;6113;42.678;23.334;2022-07-22T09:01:32;94922.38;;;33.73;30.42
12101;BME280;6113;42.678;23.334;2022-07-22T09:04:00;94936.72;;;33.98;30.27
12101;BME280;6113;42.678;23.334;2022-07-22T09:06:28;94950.63;;;33.73;29.61
12101;BME280;6113;42.678;23.334;2022-07-22T09:09:01;94944.41;;;33.86;30.10
12101;BME280;6113;42.678;23.334;2022-07-22T09:11:30;94936.69;;;33.87;29.54
12101;BME280;6113;42.678;23.334;2022-07-22T09:13:58;94943.94;;;33.90;30.22
12101;BME280;6113;42.678;23.334;2022-07-22T09:16:44;94937.41;;;34.08;29.73
12101;BME280;6113;42.678;23.334;2022-07-22T09:19:14;94946.06;;;34.01;29.94
12101;BME280;6113;42.678;23.334;2022-07-22T09:21:44;94942.47;;;34.21;30.07
12101;BME280;6113;42.678;23.334;2022-07-22T09:24:27;94927.84;;;34.25;29.42
12101;BME280;6113;42.678;23.334;2022-07-22T09:26:54;94941.56;;;34.51;29.31
12101;BME280;6113;42.678;23.334;2022-07-22T09:29:22;94934.47;;;34.61;28.38
12101;BME280;6113;42.678;23.334;2022-07-22T09:31:50;94917.97;;;34.69;28.24
12101;BME280;6113;42.678;23.334;2022-07-22T09:34:26;94933.59;;;34.93;28.58
12101;BME280;6113;42.678;23.334;2022-07-22T09:36:54;94923.91;;;34.73;27.51
12101;BME280;6113;42.678;23.334;2022-07-22T09:39:25;94924.13;;;34.89;27.87
12101;BME280;6113;42.678;23.334;2022-07-22T09:41:56;94926.72;;;34.62;27.94
12101;BME280;6113;42.678;23.334;2022-07-22T09:44:23;94912.44;;;34.60;27.67
12101;BME280;6113;42.678;23.334;2022-07-22T09:46:50;94932.13;;;34.81;28.31
12101;BME280;6113;42.678;23.334;2022-07-22T09:49:31;94919.72;;;34.63;27.46
12101;BME280;6113;42.678;23.334;2022-07-22T09:52:00;94926.59;;;34.83;27.36
12101;BME280;6113;42.678;23.334;2022-07-22T09:54:28;94923.66;;;35.04;28.67
12101;BME280;6113;42.678;23.334;2022-07-22T09:56:55;94917.00;;;35.22;28.68
12101;BME280;6113;42.678;23.334;2022-07-22T09:59:22;94915.97;;;35.40;28.67
12101;BME280;6113;42.678;23.334;2022-07-22T10:01:53;94913.25;;;35.54;27.57
12101;BME280;6113;42.678;23.334;2022-07-22T10:04:20;94911.31;;;35.34;26.94
12101;BME280;6113;42.678;23.334;2022-07-22T10:06:53;94887.91;;;35.33;27.05
12101;BME280;6113;42.678;23.334;2022-07-22T10:09:21;94913.44;;;35.69;27.62
12101;BME280;6113;42.678;23.334;2022-07-22T10:11:48;94910.94;;;35.75;26.50
12101;BME280;6113;42.678;23.334;2022-07-22T10:14:17;94904.84;;;35.44;26.43
12101;BME280;6113;42.678;23.334;2022-07-22T10:16:44;94904.34;;;35.59;27.22
12101;BME280;6113;42.678;23.334;2022-07-22T10:19:12;94905.09;;;35.48;26.38
12101;BME280;6113;42.678;23.334;2022-07-22T10:21:39;94901.88;;;35.65;27.43
12101;BME280;6113;42.678;23.334;2022-07-22T10:24:12;94897.13;;;35.81;27.08
12101;BME280;6113;42.678;23.334;2022-07-22T10:26:46;94903.72;;;35.97;27.32
12101;BME280;6113;42.678;23.334;2022-07-22T10:29:28;94889.66;;;35.99;26.37
12101;BME280;6113;42.678;23.334;2022-07-22T10:32:23;94901.44;;;36.07;26.76
12101;BME280;6113;42.678;23.334;2022-07-22T10:35:22;94895.44;;;36.26;26.41
12101;BME280;6113;42.678;23.334;2022-07-22T10:37:53;94900.78;;;36.33;25.77
12101;BME280;6113;42.678;23.334;2022-07-22T10:40:23;94907.81;;;36.44;25.58
12101;BME280;6113;42.678;23.334;2022-07-22T10:43:06;94895.94;;;36.47;26.18
12101;BME280;6113;42.678;23.334;2022-07-22T10:45:37;94892.91;;;35.82;25.47
12101;BME280;6113;42.678;23.334;2022-07-22T10:48:05;94896.22;;;35.42;25.84
12101;BME280;6113;42.678;23.334;2022-07-22T10:50:54;94892.91;;;35.82;26.60
12101;BME280;6113;42.678;23.334;2022-07-22T10:53:40;94892.44;;;36.11;26.41
12101;BME280;6113;42.678;23.334;2022-07-22T10:56:15;94877.13;;;36.16;25.66
12101;BME280;6113;42.678;23.334;2022-07-22T10:58:48;94873.91;;;36.34;25.98
12101;BME280;6113;42.678;23.334;2022-07-22T11:01:17;94855.50;;;36.35;24.91
12101;BME280;6113;42.678;23.334;2022-07-22T11:03:46;94883.88;;;36.60;25.61
12101;BME280;6113;42.678;23.334;2022-07-22T11:06:17;94880.63;;;36.66;25.99
12101;BME280;6113;42.678;23.334;2022-07-22T11:08:46;94851.56;;;36.54;24.70
12101;BME280;6113;42.678;23.334;2022-07-22T11:11:15;94881.47;;;36.68;25.43
12101;BME280;6113;42.678;23.334;2022-07-22T11:13:43;94867.25;;;36.68;25.45
12101;BME280;6113;42.678;23.334;2022-07-22T11:16:19;94876.00;;;36.86;25.31
12101;BME280;6113;42.678;23.334;2022-07-22T11:18:48;94872.84;;;36.28;24.51
12101;BME280;6113;42.678;23.334;2022-07-22T11:21:17;94832.25;;;35.87;25.72
12101;BME280;6113;42.678;23.334;2022-07-22T11:23:44;94862.63;;;36.23;25.33
12101;BME280;6113;42.678;23.334;2022-07-22T11:26:17;94871.84;;;36.48;25.56
12101;BME280;6113;42.678;23.334;2022-07-22T11:28:45;94864.41;;;36.55;25.88
12101;BME280;6113;42.678;23.334;2022-07-22T11:31:14;94857.91;;;36.66;25.66
12101;BME280;6113;42.678;23.334;2022-07-22T11:33:42;94870.31;;;36.86;25.34
12101;BME280;6113;42.678;23.334;2022-07-22T11:36:09;94873.56;;;36.80;25.29
12101;BME280;6113;42.678;23.334;2022-07-22T11:38:43;94870.09;;;36.68;24.66
12101;BME280;6113;42.678;23.334;2022-07-22T11:41:13;94871.88;;;36.75;25.45
12101;BME280;6113;42.678;23.334;2022-07-22T11:43:44;94880.94;;;36.85;25.27
12101;BME280;6113;42.678;23.334;2022-07-22T11:46:11;94874.66;;;36.87;25.65
12101;BME280;6113;42.678;23.334;2022-07-22T11:48:39;94877.91;;;36.95;25.78
12101;BME280;6113;42.678;23.334;2022-07-22T11:51:06;94873.16;;;36.86;24.39
12101;BME280;6113;42.678;23.334;2022-07-22T11:53:35;94863.25;;;36.60;24.78
12101;BME280;6113;42.678;23.334;2022-07-22T11:56:04;94860.94;;;36.70;24.85
12101;BME280;6113;42.678;23.334;2022-07-22T11:58:36;94860.00;;;36.79;24.77
12101;BME280;6113;42.678;23.334;2022-07-22T12:01:05;94869.47;;;36.83;24.76
12101;BME280;6113;42.678;23.334;2022-07-22T12:03:33;94858.75;;;36.82;25.06
12101;BME280;6113;42.678;23.334;2022-07-22T12:06:03;94851.06;;;36.84;24.88
12101;BME280;6113;42.678;23.334;2022-07-22T12:08:31;94870.75;;;36.94;24.71
12101;BME280;6113;42.678;23.334;2022-07-22T12:10:59;94873.59;;;36.94;24.85
12101;BME280;6113;42.678;23.334;2022-07-22T12:13:30;94856.97;;;36.88;24.78
12101;BME280;6113;42.678;23.334;2022-07-22T12:15:57;94869.41;;;36.95;24.62
12101;BME280;6113;42.678;23.334;2022-07-22T12:18:26;94862.34;;;36.96;25.05
12101;BME280;6113;42.678;23.334;2022-07-22T12:20:55;94788.81;;;36.48;24.89
12101;BME280;6113;42.678;23.334;2022-07-22T12:23:24;94848.69;;;36.27;24.74
12101;BME280;6113;42.678;23.334;2022-07-22T12:25:54;94847.41;;;36.30;24.86
12101;BME280;6113;42.678;23.334;2022-07-22T12:28:21;94842.53;;;36.44;25.73
12101;BME280;6113;42.678;23.334;2022-07-22T12:30:49;94844.00;;;36.58;25.50
12101;BME280;6113;42.678;23.334;2022-07-22T12:33:19;94839.94;;;36.61;25.58
12101;BME280;6113;42.678;23.334;2022-07-22T12:36:00;94797.88;;;36.44;25.05
12101;BME280;6113;42.678;23.334;2022-07-22T12:38:28;94850.13;;;36.80;25.50
12101;BME280;6113;42.678;23.334;2022-07-22T12:40:54;94820.91;;;36.64;25.04
12101;BME280;6113;42.678;23.334;2022-07-22T12:43:25;94844.66;;;36.84;24.97
12101;BME280;6113;42.678;23.334;2022-07-22T12:45:52;94850.97;;;36.82;25.26
12101;BME280;6113;42.678;23.334;2022-07-22T12:48:19;94847.47;;;36.84;24.52
12101;BME280;6113;42.678;23.334;2022-07-22T12:50:55;94839.50;;;36.80;24.52
12101;BME280;6113;42.678;23.334;2022-07-22T12:53:25;94847.28;;;36.80;24.78
12101;BME280;6113;42.678;23.334;2022-07-22T12:55:56;94844.03;;;36.72;24.71
12101;BME280;6113;42.678;23.334;2022-07-22T12:58:25;94825.84;;;36.50;24.41
12101;BME280;6113;42.678;23.334;2022-07-22T13:00:54;94830.47;;;36.57;24.83
12101;BME280;6113;42.678;23.334;2022-07-22T13:03:22;94813.72;;;36.36;25.07
12101;BME280;6113;42.678;23.334;2022-07-22T13:05:54;94837.97;;;36.39;24.40